Time;durP1;ratioP1;P1;durP2;ratioP2;P2;SDS_P1;SDS_P2;PMS_P1;PMS_P2;Temp;Humidity;BMP_temperature;BMP_pressure;BME280_temperature;BME280_humidity;BME280_pressure;Samples;Min_cycle;Max_cycle;Signal;HPM_P1;HPM_P2
2022/10/02 00:01:35;;;;;;;83.80;22.20;;;13.50;99.90;;;;;;5019772;28;20154;-84
2022/10/02 00:04:02;;;;;;;76.77;23.43;;;13.50;99.90;;;;;;5017970;28;20201;-84
2022/10/02 00:06:39;;;;;;;80.40;21.53;;;13.40;99.90;;;;;;5018187;28;20459;-84
2022/10/02 00:09:09;;;;;;;84.67;20.73;;;13.40;99.90;;;;;;5021872;28;20420;-84
2022/10/02 00:11:45;;;;;;;80.47;24.93;;;13.40;99.90;;;;;;5019699;28;20397;-84
2022/10/02 00:14:15;;;;;;;87.45;23.75;;;13.50;99.90;;;;;;5022401;28;20396;-84
2022/10/02 00:16:54;;;;;;;78.68;25.35;;;13.50;99.90;;;;;;5022112;28;20157;-84
2022/10/02 00:19:20;;;;;;;82.90;23.90;;;13.50;99.90;;;;;;5021016;28;20197;-84
2022/10/02 00:22:06;;;;;;;78.97;19.40;;;13.50;99.90;;;;;;5022087;28;20455;-84
2022/10/02 00:24:46;;;;;;;80.93;21.60;;;13.50;99.90;;;;;;4990235;28;20303;-84
2022/10/02 00:27:39;;;;;;;79.40;21.50;;;13.50;99.90;;;;;;5021621;28;20389;-84
2022/10/02 00:30:09;;;;;;;89.50;30.53;;;13.50;99.90;;;;;;5020397;28;20504;-84
2022/10/02 00:33:23;;;;;;;82.37;26.30;;;13.40;99.90;;;;;;5020736;28;20436;-84
2022/10/02 00:36:19;;;;;;;81.00;26.43;;;13.50;99.90;;;;;;5007550;28;20408;-84
2022/10/02 00:39:10;;;;;;;83.43;25.27;;;13.50;99.90;;;;;;5020066;28;20433;-84
2022/10/02 00:41:54;;;;;;;95.03;34.63;;;13.50;99.90;;;;;;5019463;28;20385;-84
2022/10/02 00:44:44;;;;;;;82.27;26.97;;;13.50;99.90;;;;;;5021072;28;20448;-84
2022/10/02 00:47:27;;;;;;;86.00;27.30;;;13.50;99.90;;;;;;5022172;28;20396;-84
2022/10/02 00:50:25;;;;;;;84.13;34.20;;;13.50;99.90;;;;;;5022809;28;20380;-84
2022/10/02 00:53:14;;;;;;;85.63;35.37;;;13.50;99.90;;;;;;5022142;28;20385;-84
2022/10/02 00:55:43;;;;;;;92.40;36.13;;;13.50;99.90;;;;;;5021023;28;20415;-84
2022/10/02 00:58:38;;;;;;;80.43;37.63;;;13.60;99.90;;;;;;5020556;28;20428;-84
2022/10/02 01:01:29;;;;;;;85.93;38.50;;;13.60;99.90;;;;;;5040641;28;20463;-84
2022/10/02 01:03:56;;;;;;;91.13;46.00;;;13.60;99.90;;;;;;5039623;28;20450;-84
2022/10/02 01:06:27;;;;;;;92.27;50.40;;;13.70;99.90;;;;;;5037581;28;20415;-85
2022/10/02 01:08:54;;;;;;;93.90;43.43;;;13.60;99.90;;;;;;5038967;28;20511;-84
2022/10/02 01:11:25;;;;;;;93.07;49.43;;;13.70;99.90;;;;;;5039287;28;20396;-84
2022/10/02 01:13:52;;;;;;;105.50;51.53;;;13.70;99.90;;;;;;5041157;28;20407;-84
2022/10/02 01:16:18;;;;;;;91.93;47.90;;;13.80;99.90;;;;;;5040570;28;20406;-84
2022/10/02 01:18:46;;;;;;;94.77;46.70;;;13.80;99.90;;;;;;5040774;28;20419;-84
2022/10/02 01:21:38;;;;;;;93.77;38.27;;;13.80;99.90;;;;;;5042013;28;20404;-84
2022/10/02 01:24:07;;;;;;;92.10;40.60;;;13.90;99.90;;;;;;5044203;28;20462;-84
2022/10/02 01:26:33;;;;;;;83.20;38.77;;;13.90;99.90;;;;;;5044219;28;20396;-84
2022/10/02 01:28:58;;;;;;;94.47;39.13;;;13.90;99.90;;;;;;5044814;28;20416;-84
2022/10/02 01:31:24;;;;;;;99.67;42.67;;;13.90;99.90;;;;;;5044460;28;20564;-84
2022/10/02 01:33:51;;;;;;;94.47;31.73;;;13.90;99.90;;;;;;5044861;28;20192;-84
2022/10/02 01:36:17;;;;;;;91.67;35.07;;;13.90;99.90;;;;;;5044644;28;20407;-84
2022/10/02 01:38:43;;;;;;;90.87;38.77;;;13.90;99.90;;;;;;5044716;28;20455;-84
2022/10/02 01:41:10;;;;;;;84.00;40.90;;;14.00;99.90;;;;;;5043842;28;20408;-84
2022/10/02 01:43:44;;;;;;;89.77;39.27;;;14.00;99.90;;;;;;5043253;28;20484;-84
2022/10/02 01:46:31;;;;;;;93.67;40.53;;;14.00;99.90;;;;;;5042778;28;20403;-84
2022/10/02 01:49:09;;;;;;;93.47;39.90;;;14.00;99.90;;;;;;5044123;28;20843;-84
2022/10/02 01:51:57;;;;;;;87.63;37.60;;;14.00;99.90;;;;;;5042793;28;20479;-84
2022/10/02 01:54:42;;;;;;;95.90;44.30;;;14.00;99.90;;;;;;5023602;28;20989;-84
2022/10/02 01:57:52;;;;;;;88.00;37.47;;;14.00;99.90;;;;;;5042496;28;20393;-84
2022/10/02 02:00:24;;;;;;;86.00;38.37;;;14.10;99.90;;;;;;5020729;28;20443;-84
2022/10/02 02:03:04;;;;;;;96.77;48.07;;;14.00;99.90;;;;;;5040616;28;20451;-84
2022/10/02 02:05:39;;;;;;;99.93;46.47;;;14.10;99.90;;;;;;5042894;28;20435;-84
2022/10/02 02:08:19;;;;;;;87.87;40.13;;;14.10;99.90;;;;;;5043152;28;20420;-84
2022/10/02 02:10:56;;;;;;;87.37;35.27;;;14.10;99.90;;;;;;5105020;22;20399;-84
2022/10/02 02:13:30;;;;;;;85.77;34.47;;;14.10;99.90;;;;;;5041994;28;20384;-84
2022/10/02 02:16:20;;;;;;;94.53;37.47;;;14.10;99.90;;;;;;5043238;28;20404;-84
2022/10/02 02:19:11;;;;;;;89.20;37.77;;;14.20;99.90;;;;;;5043506;28;20411;-84
2022/10/02 02:21:44;;;;;;;92.03;33.43;;;14.20;99.90;;;;;;5022410;28;20408;-84
2022/10/02 02:24:24;;;;;;;85.37;34.20;;;14.20;99.90;;;;;;5042407;28;20523;-84
2022/10/02 02:26:53;;;;;;;87.77;32.13;;;14.10;99.90;;;;;;5042631;28;20380;-84
2022/10/02 02:29:21;;;;;;;91.27;31.43;;;14.20;99.90;;;;;;5025615;28;20428;-84
2022/10/02 02:31:52;;;;;;;86.33;27.30;;;14.20;99.90;;;;;;5043522;28;20558;-84
2022/10/02 02:34:22;;;;;;;97.80;33.90;;;14.20;99.90;;;;;;5042506;28;20412;-84
2022/10/02 02:36:54;;;;;;;90.87;27.87;;;14.10;99.90;;;;;;5025485;28;20400;-84
2022/10/02 02:39:44;;;;;;;86.87;30.13;;;14.10;99.90;;;;;;5041788;28;20420;-84
2022/10/02 02:42:13;;;;;;;95.87;33.47;;;14.10;99.90;;;;;;5044154;28;20457;-84
2022/10/02 02:45:03;;;;;;;87.03;35.57;;;14.00;99.90;;;;;;5026522;28;20466;-84
2022/10/02 02:47:50;;;;;;;95.10;34.20;;;14.00;99.90;;;;;;5024649;28;20443;-84
2022/10/02 02:50:19;;;;;;;88.70;36.90;;;14.00;99.90;;;;;;5026235;28;20507;-84
2022/10/02 02:52:56;;;;;;;87.43;32.00;;;14.00;99.90;;;;;;5025889;28;20404;-84
2022/10/02 02:55:28;;;;;;;92.17;39.37;;;14.00;99.90;;;;;;5044523;28;20403;-84
2022/10/02 02:58:14;;;;;;;88.97;35.77;;;14.00;99.90;;;;;;5026815;28;20888;-84
2022/10/02 03:00:40;;;;;;;92.30;34.03;;;14.10;99.90;;;;;;5026103;28;20415;-84
2022/10/02 03:03:06;;;;;;;95.67;38.00;;;14.10;99.90;;;;;;5043926;28;20443;-84
2022/10/02 03:05:34;;;;;;;91.27;36.77;;;14.10;99.90;;;;;;5043638;28;20529;-84
2022/10/02 03:08:06;;;;;;;87.33;37.60;;;14.10;99.90;;;;;;5025677;28;20434;-84
2022/10/02 03:10:59;;;;;;;90.03;34.23;;;14.20;99.90;;;;;;5025201;28;20450;-84
2022/10/02 03:13:36;;;;;;;83.03;32.07;;;14.20;99.90;;;;;;5043215;28;20392;-84
2022/10/02 03:16:19;;;;;;;93.77;36.70;;;14.20;99.90;;;;;;5043292;28;20394;-84
2022/10/02 03:18:58;;;;;;;91.90;35.20;;;14.20;99.90;;;;;;5025640;28;20503;-84
2022/10/02 03:21:55;;;;;;;87.17;37.87;;;14.20;99.90;;;;;;5043055;28;20380;-84
2022/10/02 03:25:02;;;;;;;88.50;40.77;;;14.20;99.90;;;;;;5042151;28;20471;-84
2022/10/02 03:27:40;;;;;;;92.37;44.50;;;14.20;99.90;;;;;;5010497;28;20427;-83
2022/10/02 03:30:13;;;;;;;95.20;43.07;;;14.20;99.90;;;;;;5042859;28;20388;-83
2022/10/02 03:32:42;;;;;;;98.20;44.13;;;14.20;99.90;;;;;;5024714;28;20454;-84
2022/10/02 03:35:11;;;;;;;88.37;39.53;;;14.20;99.90;;;;;;5025200;28;20435;-84
2022/10/02 03:37:41;;;;;;;93.13;47.97;;;14.30;99.90;;;;;;5042324;28;20507;-84
2022/10/02 03:40:07;;;;;;;91.60;47.30;;;14.20;99.90;;;;;;5024167;28;20404;-84
2022/10/02 03:42:35;;;;;;;92.10;39.20;;;14.20;99.90;;;;;;5042743;28;20407;-84
2022/10/02 03:45:01;;;;;;;98.07;49.90;;;14.20;99.90;;;;;;5042808;28;20408;-84
2022/10/02 03:47:26;;;;;;;97.40;49.37;;;14.10;99.90;;;;;;5039602;28;20400;-83
2022/10/02 03:49:52;;;;;;;92.67;53.73;;;14.00;99.90;;;;;;5042734;28;20161;-84
2022/10/02 03:52:20;;;;;;;100.20;65.53;;;14.00;99.90;;;;;;5044258;28;20169;-84
2022/10/02 03:54:54;;;;;;;91.03;51.93;;;14.00;99.90;;;;;;5028236;28;20647;-84
2022/10/02 03:57:23;;;;;;;91.23;59.57;;;14.00;99.90;;;;;;5044329;28;20419;-84
2022/10/02 04:00:08;;;;;;;92.17;51.53;;;14.00;99.90;;;;;;5045738;28;20407;-84
2022/10/02 04:02:46;;;;;;;94.57;48.50;;;14.10;99.90;;;;;;5045951;28;20471;-83
2022/10/02 04:05:26;;;;;;;102.30;56.50;;;14.20;99.90;;;;;;5044848;28;20411;-83
2022/10/02 04:08:01;;;;;;;99.30;48.53;;;14.10;99.90;;;;;;5043944;28;20776;-83
2022/10/02 04:10:55;;;;;;;97.80;52.03;;;14.10;99.90;;;;;;5044798;28;20383;-83
2022/10/02 04:13:36;;;;;;;89.13;44.40;;;14.10;99.90;;;;;;5043755;28;20415;-83
2022/10/02 04:16:02;;;;;;;93.17;51.20;;;14.10;99.90;;;;;;5044186;28;20856;-83
2022/10/02 04:18:40;;;;;;;95.43;54.43;;;14.10;99.90;;;;;;5043802;28;20427;-83
2022/10/02 04:21:06;;;;;;;92.43;52.00;;;14.00;99.90;;;;;;5043922;28;20168;-83
2022/10/02 04:23:34;;;;;;;88.73;45.97;;;14.00;99.90;;;;;;5044695;28;20450;-83
2022/10/02 04:26:06;;;;;;;93.27;48.70;;;14.20;99.90;;;;;;5044482;28;20157;-83
2022/10/02 04:28:41;;;;;;;102.73;53.87;;;14.10;99.90;;;;;;5044711;28;20822;-83
2022/10/02 04:31:12;;;;;;;97.67;50.87;;;14.20;99.90;;;;;;5044900;28;20376;-83
2022/10/02 04:33:38;;;;;;;90.03;50.37;;;14.20;99.90;;;;;;5044166;28;20385;-83
2022/10/02 04:36:48;;;;;;;91.57;49.23;;;14.20;99.90;;;;;;5043599;28;20427;-83
2022/10/02 04:39:26;;;;;;;88.60;49.00;;;14.20;99.90;;;;;;5024652;28;20792;-83
2022/10/02 04:42:14;;;;;;;89.97;41.00;;;14.20;99.90;;;;;;5044321;28;20475;-83
2022/10/02 04:45:12;;;;;;;93.93;45.90;;;14.20;99.90;;;;;;5044139;28;20447;-83
2022/10/02 04:48:31;;;;;;;90.43;42.33;;;14.20;99.90;;;;;;5044726;28;20420;-83
2022/10/02 04:51:39;;;;;;;90.33;36.47;;;14.20;99.90;;;;;;5036308;28;20448;-83
2022/10/02 04:54:16;;;;;;;91.67;44.27;;;14.20;99.90;;;;;;5044829;28;20369;-83
2022/10/02 04:57:27;;;;;;;93.53;49.87;;;14.10;99.90;;;;;;5044389;28;20426;-83
2022/10/02 05:00:12;;;;;;;90.53;44.47;;;14.00;99.90;;;;;;5113401;22;20916;-87
2022/10/02 05:02:43;;;;;;;92.33;49.80;;;14.00;99.90;;;;;;5043050;28;20392;-86
2022/10/02 05:05:40;;;;;;;93.67;46.03;;;14.00;99.90;;;;;;5042021;28;20442;-86
2022/10/02 05:08:24;;;;;;;92.67;52.10;;;14.00;99.90;;;;;;5021370;28;20424;-86
2022/10/02 05:11:11;;;;;;;89.43;48.97;;;14.00;99.90;;;;;;5023810;28;20407;-86
2022/10/02 05:13:46;;;;;;;92.23;46.27;;;14.00;99.90;;;;;;5041621;28;20383;-86
2022/10/02 05:16:29;;;;;;;85.90;45.47;;;14.00;99.90;;;;;;5041972;28;20720;-86
2022/10/02 05:19:27;;;;;;;93.37;45.00;;;14.00;99.90;;;;;;5024230;28;20548;-86
2022/10/02 05:22:30;;;;;;;87.27;40.93;;;14.00;99.90;;;;;;5041804;28;20461;-86
2022/10/02 05:25:10;;;;;;;89.23;34.93;;;14.00;99.90;;;;;;5021458;28;20546;-86
2022/10/02 05:28:05;;;;;;;87.77;46.47;;;14.00;99.90;;;;;;5024116;28;20439;-86
2022/10/02 05:31:05;;;;;;;97.93;41.03;;;13.90;99.90;;;;;;5041432;28;20376;-86
2022/10/02 05:33:48;;;;;;;87.63;41.27;;;14.00;99.90;;;;;;5040920;28;20442;-86
2022/10/02 05:36:35;;;;;;;85.67;43.93;;;14.00;99.90;;;;;;5023587;28;20385;-86
2022/10/02 05:39:07;;;;;;;84.80;40.77;;;14.10;99.90;;;;;;5042257;28;20412;-86
2022/10/02 05:41:33;;;;;;;88.50;42.27;;;14.10;99.90;;;;;;5041616;28;20399;-85
2022/10/02 05:44:18;;;;;;;87.20;44.13;;;14.10;99.90;;;;;;5022689;28;20462;-86
2022/10/02 05:46:57;;;;;;;81.00;36.67;;;14.10;99.90;;;;;;5040059;28;20153;-86
2022/10/02 05:49:33;;;;;;;82.27;37.10;;;14.10;99.90;;;;;;5040608;28;20422;-86
2022/10/02 05:52:09;;;;;;;85.17;43.17;;;14.20;99.90;;;;;;5041569;28;20880;-86
2022/10/02 05:54:54;;;;;;;87.33;42.53;;;14.10;99.90;;;;;;5023375;28;20913;-87
2022/10/02 05:57:36;;;;;;;81.70;40.87;;;14.10;99.90;;;;;;5040783;28;20423;-87
2022/10/02 06:00:33;;;;;;;88.47;41.43;;;14.10;99.90;;;;;;5023043;28;20457;-87
2022/10/02 06:03:17;;;;;;;87.53;43.23;;;14.10;99.90;;;;;;5022672;28;20455;-86
2022/10/02 06:06:06;;;;;;;85.17;45.30;;;14.10;99.90;;;;;;5040362;28;20392;-86
2022/10/02 06:08:52;;;;;;;84.90;47.87;;;14.20;99.90;;;;;;5040213;28;20415;-86
2022/10/02 06:11:30;;;;;;;85.87;38.63;;;14.10;99.90;;;;;;5039546;28;20981;-86
2022/10/02 06:14:01;;;;;;;83.93;41.10;;;14.10;99.90;;;;;;5040443;28;20818;-86
2022/10/02 06:16:46;;;;;;;89.97;45.83;;;14.10;99.90;;;;;;5023612;28;20407;-87
2022/10/02 06:19:19;;;;;;;81.93;39.80;;;14.10;99.90;;;;;;5039438;28;20467;-86
2022/10/02 06:21:44;;;;;;;83.23;42.20;;;14.20;99.90;;;;;;5039646;28;20479;-86
2022/10/02 06:24:17;;;;;;;80.43;38.50;;;14.20;99.90;;;;;;5021939;28;20535;-86
2022/10/02 06:26:56;;;;;;;86.67;43.07;;;14.20;99.90;;;;;;5039457;28;20150;-86
2022/10/02 06:29:33;;;;;;;81.67;37.50;;;14.20;99.90;;;;;;5040009;28;20431;-86
2022/10/02 06:32:24;;;;;;;81.93;34.67;;;14.20;99.90;;;;;;5022277;28;20764;-86
2022/10/02 06:34:50;;;;;;;86.10;36.50;;;14.30;99.90;;;;;;5040017;28;20410;-86
2022/10/02 06:37:39;;;;;;;80.20;39.87;;;14.30;99.90;;;;;;5022170;28;20408;-86
2022/10/02 06:40:40;;;;;;;80.10;41.47;;;14.30;99.90;;;;;;5039783;28;20161;-86
2022/10/02 06:43:17;;;;;;;75.27;33.57;;;14.30;99.90;;;;;;5040364;28;20463;-86
2022/10/02 06:46:01;;;;;;;80.67;40.47;;;14.30;99.90;;;;;;5040447;28;20895;-86
2022/10/02 06:48:57;;;;;;;81.47;41.37;;;14.40;99.90;;;;;;5021508;28;20451;-87
2022/10/02 06:51:25;;;;;;;80.77;39.37;;;14.40;99.90;;;;;;5039635;28;20376;-86
2022/10/02 06:54:21;;;;;;;79.53;39.20;;;14.40;99.90;;;;;;5039937;28;20410;-85
2022/10/02 06:56:53;;;;;;;82.03;43.03;;;14.50;99.90;;;;;;5039444;28;20808;-86
2022/10/02 06:59:56;;;;;;;82.27;47.80;;;14.50;99.90;;;;;;5039041;28;20478;-86
2022/10/02 07:02:52;;;;;;;86.90;54.07;;;14.50;99.90;;;;;;5022060;28;20775;-86
2022/10/02 07:05:48;;;;;;;84.87;49.63;;;14.50;99.90;;;;;;5039547;28;20388;-86
2022/10/02 07:09:01;;;;;;;83.57;42.93;;;14.60;99.90;;;;;;5038840;28;20937;-86
2022/10/02 07:12:04;;;;;;;80.67;44.47;;;14.60;99.90;;;;;;4997613;28;20417;-86
2022/10/02 07:14:36;;;;;;;83.03;36.10;;;14.60;99.90;;;;;;5039170;28;20459;-86
2022/10/02 07:17:41;;;;;;;75.47;27.53;;;14.50;99.90;;;;;;5040048;28;20432;-86
2022/10/02 07:20:12;;;;;;;73.30;11.53;;;14.60;99.90;;;;;;5038390;28;20485;-86
2022/10/02 07:23:01;;;;;;;69.70;7.80;;;14.50;99.90;;;;;;5022659;28;20423;-86
2022/10/02 07:25:38;;;;;;;70.30;7.17;;;14.50;99.90;;;;;;5040392;28;20415;-86
2022/10/02 07:28:23;;;;;;;68.87;7.87;;;14.50;99.90;;;;;;5039287;28;20428;-86
2022/10/02 07:31:08;;;;;;;69.67;9.07;;;14.50;99.90;;;;;;5022216;28;20770;-86
2022/10/02 07:33:47;;;;;;;69.37;9.50;;;14.50;99.90;;;;;;5039193;28;20469;-86
2022/10/02 07:36:24;;;;;;;67.57;9.13;;;14.50;99.90;;;;;;5039065;28;20384;-86
2022/10/02 07:39:10;;;;;;;68.57;9.30;;;14.60;99.90;;;;;;5038415;28;20450;-86
2022/10/02 07:42:01;;;;;;;69.87;11.07;;;14.60;99.90;;;;;;5017440;28;20407;-85
2022/10/02 07:44:52;;;;;;;74.10;9.67;;;14.60;99.90;;;;;;5018270;28;20435;-85
2022/10/02 07:47:20;;;;;;;68.40;9.93;;;14.60;99.90;;;;;;5017419;28;20393;-85
2022/10/02 07:50:00;;;;;;;70.83;9.43;;;14.70;99.90;;;;;;5037539;28;20484;-87
2022/10/02 07:53:01;;;;;;;70.67;8.53;;;14.70;99.90;;;;;;5020796;28;20465;-86
2022/10/02 07:55:27;;;;;;;70.30;9.07;;;14.80;99.90;;;;;;4979876;28;20416;-86
2022/10/02 07:58:11;;;;;;;69.80;7.50;;;14.80;99.90;;;;;;5012040;28;20428;-86
2022/10/02 08:00:46;;;;;;;72.90;8.07;;;14.80;99.90;;;;;;5037769;28;20440;-87
2022/10/02 08:03:14;;;;;;;68.60;9.60;;;14.90;99.90;;;;;;5021245;28;20467;-86
2022/10/02 08:05:49;;;;;;;70.07;10.80;;;14.80;99.90;;;;;;5037837;28;20409;-87
2022/10/02 08:08:28;;;;;;;67.73;8.53;;;14.90;99.90;;;;;;5020510;28;20436;-86
2022/10/02 08:11:04;;;;;;;67.47;10.13;;;14.80;99.90;;;;;;5038327;28;20380;-87
2022/10/02 08:13:39;;;;;;;68.67;10.03;;;14.90;99.90;;;;;;5020071;28;20438;-86
2022/10/02 08:16:06;;;;;;;70.87;9.23;;;14.90;99.90;;;;;;5038185;28;20392;-87
2022/10/02 08:18:43;;;;;;;68.60;9.70;;;14.90;99.90;;;;;;5038839;28;20432;-87
2022/10/02 08:21:14;;;;;;;69.67;8.37;;;14.90;99.90;;;;;;5038724;28;20388;-87
2022/10/02 08:23:54;;;;;;;69.37;8.93;;;14.90;99.90;;;;;;5038024;28;20933;-87
2022/10/02 08:26:50;;;;;;;69.60;7.70;;;14.90;99.90;;;;;;5038287;28;20881;-86
2022/10/02 08:29:26;;;;;;;65.87;6.03;;;14.90;99.90;;;;;;5038506;28;20773;-87
2022/10/02 08:31:53;;;;;;;65.77;5.83;;;15.00;99.90;;;;;;5037639;28;20418;-87
2022/10/02 08:34:21;;;;;;;65.60;5.60;;;15.00;99.90;;;;;;5038188;28;20426;-87
2022/10/02 08:37:15;;;;;;;65.83;5.83;;;15.00;99.90;;;;;;5038474;28;20411;-86
2022/10/02 08:40:21;;;;;;;67.33;6.50;;;14.90;99.90;;;;;;5020734;28;20448;-87
2022/10/02 08:43:05;;;;;;;65.30;6.33;;;15.00;99.90;;;;;;5020538;28;20993;-87
2022/10/02 08:45:33;;;;;;;68.23;6.87;;;15.00;99.90;;;;;;5021147;28;20404;-87
2022/10/02 08:48:21;;;;;;;67.37;5.60;;;15.10;99.90;;;;;;5039216;28;20430;-87
2022/10/02 08:51:05;;;;;;;66.67;6.13;;;15.20;99.90;;;;;;5020589;28;20500;-86
2022/10/02 08:53:48;;;;;;;71.53;6.20;;;15.40;99.90;;;;;;5037416;28;20400;-87
2022/10/02 08:56:45;;;;;;;66.37;5.50;;;15.50;99.90;;;;;;5037704;28;20777;-86
2022/10/02 08:59:24;;;;;;;68.37;6.27;;;15.60;99.90;;;;;;5037554;28;20832;-87
2022/10/02 09:02:30;;;;;;;67.53;7.00;;;15.70;99.90;;;;;;5019997;28;20415;-87
2022/10/02 09:05:24;;;;;;;67.27;6.60;;;15.90;99.90;;;;;;5020995;28;20446;-87
2022/10/02 09:08:06;;;;;;;70.90;7.47;;;15.90;99.90;;;;;;5020195;28;20436;-87
2022/10/02 09:11:03;;;;;;;68.80;6.83;;;16.00;99.90;;;;;;5020238;28;20424;-86
2022/10/02 09:14:08;;;;;;;67.17;6.40;;;16.10;99.90;;;;;;5037462;28;20497;-87
2022/10/02 09:17:11;;;;;;;64.87;5.80;;;16.20;99.90;;;;;;5020591;28;20419;-87
2022/10/02 09:19:40;;;;;;;65.73;5.97;;;16.20;99.90;;;;;;5038790;28;20425;-86
2022/10/02 09:22:31;;;;;;;66.23;5.53;;;16.40;99.90;;;;;;5038376;28;20413;-87
2022/10/02 09:25:23;;;;;;;68.20;5.83;;;16.60;99.90;;;;;;5037188;28;20999;-87
2022/10/02 09:28:23;;;;;;;65.07;6.10;;;16.60;99.90;;;;;;5038203;28;20458;-86
2022/10/02 09:31:05;;;;;;;69.53;7.70;;;16.80;99.90;;;;;;5020964;28;20397;-87
2022/10/02 09:33:57;;;;;;;69.67;8.33;;;16.90;99.90;;;;;;5038602;28;20394;-86
2022/10/02 09:36:38;;;;;;;66.70;8.20;;;17.00;99.90;;;;;;5039011;28;20387;-86
2022/10/02 09:39:31;;;;;;;67.30;8.63;;;16.90;99.90;;;;;;5020716;28;20475;-86
2022/10/02 09:42:07;;;;;;;65.03;4.60;;;17.00;99.90;;;;;;5041788;28;20410;-86
2022/10/02 09:45:06;;;;;;;64.00;4.07;;;17.00;99.90;;;;;;5027240;28;20455;-87
2022/10/02 09:47:52;;;;;;;68.03;5.00;;;16.90;99.90;;;;;;5027772;28;20405;-86
2022/10/02 09:50:20;;;;;;;70.57;4.40;;;16.90;99.90;;;;;;5043398;28;20501;-87
2022/10/02 09:52:55;;;;;;;69.03;4.40;;;17.00;99.90;;;;;;5042426;28;20403;-86
2022/10/02 09:55:35;;;;;;;64.03;3.20;;;16.90;99.90;;;;;;5041432;28;20778;-86
2022/10/02 09:58:07;;;;;;;65.87;3.80;;;16.80;99.90;;;;;;5024814;28;20452;-86
2022/10/02 10:01:05;;;;;;;65.53;3.40;;;16.80;99.90;;;;;;5024437;28;20444;-86
2022/10/02 10:03:55;;;;;;;65.00;3.50;;;16.80;99.90;;;;;;5024275;28;20810;-85
2022/10/02 10:07:04;;;;;;;65.93;4.30;;;16.90;99.90;;;;;;5041564;28;20854;-86
2022/10/02 10:09:39;;;;;;;70.60;4.07;;;17.00;99.90;;;;;;5042516;28;21005;-86
2022/10/02 10:12:28;;;;;;;63.50;3.50;;;17.10;99.90;;;;;;5041897;28;20771;-86
2022/10/02 10:15:21;;;;;;;66.90;4.10;;;17.20;99.90;;;;;;5041644;28;20388;-86
2022/10/02 10:18:25;;;;;;;67.07;4.50;;;17.20;99.90;;;;;;5023243;28;20440;-86
2022/10/02 10:20:53;;;;;;;68.70;3.43;;;17.10;99.90;;;;;;5041342;28;20404;-86
2022/10/02 10:23:24;;;;;;;65.67;3.43;;;17.00;99.90;;;;;;5041256;28;20462;-86
2022/10/02 10:25:53;;;;;;;67.30;3.30;;;17.00;99.90;;;;;;5041307;28;20450;-86
2022/10/02 10:28:21;;;;;;;65.57;3.47;;;16.90;99.90;;;;;;5040685;28;20426;-86
2022/10/02 10:31:05;;;;;;;66.60;3.40;;;16.90;99.90;;;;;;5023594;28;20441;-86
2022/10/02 10:33:49;;;;;;;67.43;3.60;;;16.90;99.90;;;;;;5041741;28;20387;-85
2022/10/02 10:39:49;;;;;;;65.57;3.10;;;16.70;99.90;;;;;;5041100;28;20421;-86
2022/10/02 10:42:34;;;;;;;65.17;2.83;;;16.60;99.90;;;;;;5040753;28;20461;-86
2022/10/02 10:45:24;;;;;;;70.13;5.43;;;16.60;99.90;;;;;;5022527;28;20507;-86
2022/10/02 10:48:08;;;;;;;68.80;3.40;;;16.60;99.90;;;;;;5041460;28;20779;-86
2022/10/02 10:50:53;;;;;;;66.93;4.20;;;16.60;99.90;;;;;;5040968;28;20398;-85
2022/10/02 10:53:22;;;;;;;67.07;4.10;;;16.70;99.90;;;;;;5022030;28;20457;-86
2022/10/02 10:56:18;;;;;;;63.93;3.93;;;16.70;99.90;;;;;;5039983;28;20408;-86
2022/10/02 10:58:53;;;;;;;65.17;4.90;;;16.70;99.90;;;;;;5040945;28;20437;-86
2022/10/02 11:01:36;;;;;;;66.40;4.30;;;16.80;99.90;;;;;;5040763;28;20429;-85
2022/10/02 11:04:24;;;;;;;67.57;4.53;;;16.90;99.90;;;;;;5041484;28;20531;-86
2022/10/02 11:07:06;;;;;;;68.33;4.60;;;16.80;99.90;;;;;;5022795;28;20457;-86
2022/10/02 11:09:35;;;;;;;68.97;4.07;;;16.90;99.90;;;;;;5022361;28;20455;-85
2022/10/02 11:12:03;;;;;;;65.80;3.57;;;17.00;99.90;;;;;;5040495;28;20411;-86
2022/10/02 11:14:39;;;;;;;68.33;4.00;;;17.10;99.90;;;;;;5040474;28;20417;-86
2022/10/02 11:17:30;;;;;;;67.30;4.03;;;17.30;99.90;;;;;;5039866;28;20477;-86
2022/10/02 11:20:14;;;;;;;67.63;3.63;;;17.60;99.90;;;;;;5041098;28;20486;-86
2022/10/02 11:23:12;;;;;;;69.60;4.27;;;17.60;99.90;;;;;;5040195;28;20406;-86
2022/10/02 11:25:51;;;;;;;70.47;4.40;;;17.80;99.90;;;;;;5022930;28;20451;-85
2022/10/02 11:29:03;;;;;;;67.30;3.87;;;18.20;99.90;;;;;;5040600;28;20839;-85
2022/10/02 11:32:08;;;;;;;65.73;3.60;;;18.40;99.90;;;;;;5023205;28;20388;-85
2022/10/02 11:34:49;;;;;;;70.53;3.97;;;18.40;99.90;;;;;;5039174;28;20404;-86
2022/10/02 11:37:39;;;;;;;68.50;4.10;;;18.30;99.90;;;;;;5040316;28;20396;-86
2022/10/02 11:40:19;;;;;;;66.93;3.43;;;18.10;99.90;;;;;;5022171;28;20755;-86
2022/10/02 11:43:10;;;;;;;68.70;3.83;;;18.10;99.90;;;;;;5039857;28;20407;-85
2022/10/02 11:46:03;;;;;;;69.40;4.77;;;18.00;99.90;;;;;;5021873;28;20409;-86
2022/10/02 11:48:54;;;;;;;68.60;4.00;;;17.90;99.90;;;;;;5039445;28;20419;-86
2022/10/02 11:52:04;;;;;;;67.63;4.27;;;18.00;99.90;;;;;;5021015;28;20454;-86
2022/10/02 11:55:10;;;;;;;70.70;4.47;;;18.00;99.90;;;;;;5031178;28;20412;-86
2022/10/02 11:58:01;;;;;;;66.17;4.00;;;17.70;99.90;;;;;;5038965;28;20420;-86
2022/10/02 12:01:04;;;;;;;70.03;4.67;;;17.70;99.90;;;;;;5039061;28;20432;-85
2022/10/02 12:03:36;;;;;;;65.57;4.10;;;17.60;99.90;;;;;;5036985;28;20454;-86
2022/10/02 12:06:41;;;;;;;64.97;3.90;;;17.50;99.90;;;;;;5038773;28;20458;-86
2022/10/02 12:09:53;;;;;;;69.80;4.50;;;17.50;99.90;;;;;;5039448;28;20424;-86
2022/10/02 12:12:38;;;;;;;73.90;5.00;;;17.50;99.90;;;;;;4981241;28;20425;-85
2022/10/02 12:15:33;;;;;;;70.53;5.30;;;17.60;99.90;;;;;;5021775;28;20417;-86
2022/10/02 12:18:13;;;;;;;67.90;5.77;;;17.70;99.90;;;;;;5039105;28;20467;-86
2022/10/02 12:27:13;;;;;;;67.00;5.80;;;18.40;99.90;;;;;;5038828;28;20376;-86
2022/10/02 12:29:58;;;;;;;67.50;5.13;;;18.40;99.90;;;;;;5031439;28;20415;-85
2022/10/02 12:32:49;;;;;;;68.17;5.37;;;18.40;99.90;;;;;;5039319;28;20478;-86
2022/10/02 12:35:19;;;;;;;67.43;5.90;;;18.60;99.90;;;;;;5039711;28;20413;-85
2022/10/02 12:38:00;;;;;;;70.53;11.60;;;18.60;99.90;;;;;;5021291;28;20428;-85
2022/10/02 12:40:44;;;;;;;71.50;12.67;;;18.60;99.90;;;;;;5038833;28;20422;-85
2022/10/02 12:43:52;;;;;;;75.20;12.97;;;18.70;99.90;;;;;;5021539;28;20440;-86
2022/10/02 12:46:27;;;;;;;71.43;11.73;;;18.60;99.90;;;;;;5020977;28;20480;-86
2022/10/02 12:49:13;;;;;;;70.50;12.50;;;18.50;99.90;;;;;;5038655;28;20419;-85
2022/10/02 12:51:49;;;;;;;72.90;14.60;;;18.50;99.90;;;;;;5039621;28;20387;-85
2022/10/02 12:54:48;;;;;;;69.50;11.93;;;18.40;99.90;;;;;;5021378;28;20395;-86
2022/10/02 13:00:38;;;;;;;72.83;13.70;;;18.40;99.90;;;;;;5038483;28;20961;-86
2022/10/02 13:03:34;;;;;;;72.57;13.23;;;18.30;99.90;;;;;;5037759;28;20412;-86
2022/10/02 13:06:15;;;;;;;71.77;12.33;;;18.20;99.90;;;;;;5038174;28;20776;-86
2022/10/02 13:09:08;;;;;;;71.50;13.70;;;18.20;99.90;;;;;;5038679;28;20415;-86
2022/10/02 13:11:55;;;;;;;69.63;12.43;;;18.20;99.90;;;;;;5039001;28;20376;-85
2022/10/02 13:14:42;;;;;;;70.00;10.97;;;18.20;99.90;;;;;;5021111;28;20405;-85
2022/10/02 13:17:22;;;;;;;75.60;12.63;;;18.10;97.80;;;;;;5038846;28;20439;-85
2022/10/02 13:20:37;;;;;;;71.53;12.17;;;18.10;99.90;;;;;;5041663;28;20462;-85
2022/10/02 13:23:35;;;;;;;71.60;12.33;;;18.00;99.90;;;;;;5026870;28;20415;-85
2022/10/02 13:26:12;;;;;;;73.13;11.70;;;18.10;99.90;;;;;;5036105;28;20412;-85
2022/10/02 13:28:50;;;;;;;75.20;11.37;;;18.00;97.70;;;;;;5042287;28;20803;-86
2022/10/02 13:31:23;;;;;;;73.83;10.20;;;18.00;98.90;;;;;;5042733;28;20895;-86
2022/10/02 13:34:13;;;;;;;69.90;11.07;;;18.10;97.50;;;;;;5042045;28;20388;-85
2022/10/02 13:36:39;;;;;;;72.47;13.50;;;18.10;99.90;;;;;;5023885;28;20442;-86
2022/10/02 13:39:26;;;;;;;70.90;11.20;;;18.20;99.90;;;;;;5041739;28;20420;-85
2022/10/02 13:42:04;;;;;;;70.10;10.97;;;18.10;97.20;;;;;;5041461;28;20601;-85
2022/10/02 13:44:35;;;;;;;71.20;11.20;;;18.10;99.90;;;;;;5041040;28;20446;-85
2022/10/02 13:47:31;;;;;;;69.00;10.37;;;18.10;99.90;;;;;;5041491;28;20772;-85
2022/10/02 13:50:25;;;;;;;72.30;9.87;;;18.00;99.50;;;;;;5040635;28;20380;-85
2022/10/02 13:53:10;;;;;;;73.00;10.87;;;18.10;99.90;;;;;;5041677;28;20410;-86
2022/10/02 13:56:02;;;;;;;70.47;11.63;;;18.10;99.90;;;;;;5042373;28;20384;-86
2022/10/02 13:58:46;;;;;;;71.67;12.10;;;18.10;99.90;;;;;;5041168;28;20412;-85
2022/10/02 14:01:25;;;;;;;72.10;11.43;;;18.10;99.90;;;;;;5041978;28;20424;-85